sensor_id;sensor_type;location;lat;lon;timestamp;P1;durP1;ratioP1;P2;durP2;ratioP2
69835;SDS011;57132;51.972;4.450;2023-03-26T00:00:36;27.52;;;5.60;;
69835;SDS011;57132;51.972;4.450;2023-03-26T00:03:05;26.35;;;6.53;;
69835;SDS011;57132;51.972;4.450;2023-03-26T00:05:31;30.65;;;6.13;;
69835;SDS011;57132;51.972;4.450;2023-03-26T00:07:57;34.85;;;6.70;;
69835;SDS011;57132;51.972;4.450;2023-03-26T00:10:22;32.38;;;7.30;;
69835;SDS011;57132;51.972;4.450;2023-03-26T00:12:49;39.20;;;6.53;;
69835;SDS011;57132;51.972;4.450;2023-03-26T00:15:15;48.92;;;7.30;;
69835;SDS011;57132;51.972;4.450;2023-03-26T00:17:42;34.65;;;7.30;;
69835;SDS011;57132;51.972;4.450;2023-03-26T00:20:10;39.83;;;7.53;;
69835;SDS011;57132;51.972;4.450;2023-03-26T00:22:36;49.85;;;7.32;;
69835;SDS011;57132;51.972;4.450;2023-03-26T00:25:03;39.28;;;7.45;;
69835;SDS011;57132;51.972;4.450;2023-03-26T00:27:29;41.00;;;7.70;;
69835;SDS011;57132;51.972;4.450;2023-03-26T00:29:55;45.45;;;7.85;;
69835;SDS011;57132;51.972;4.450;2023-03-26T00:32:21;46.78;;;8.13;;
69835;SDS011;57132;51.972;4.450;2023-03-26T00:34:47;46.65;;;10.15;;
69835;SDS011;57132;51.972;4.450;2023-03-26T00:37:15;45.13;;;8.30;;
69835;SDS011;57132;51.972;4.450;2023-03-26T00:39:42;42.75;;;7.32;;
69835;SDS011;57132;51.972;4.450;2023-03-26T00:42:08;42.10;;;7.40;;
69835;SDS011;57132;51.972;4.450;2023-03-26T00:44:33;43.83;;;7.47;;
69835;SDS011;57132;51.972;4.450;2023-03-26T00:46:59;41.63;;;8.48;;
69835;SDS011;57132;51.972;4.450;2023-03-26T00:49:27;45.85;;;7.57;;
69835;SDS011;57132;51.972;4.450;2023-03-26T00:51:54;53.40;;;8.65;;
69835;SDS011;57132;51.972;4.450;2023-03-26T00:54:20;47.42;;;7.72;;
69835;SDS011;57132;51.972;4.450;2023-03-26T00:56:46;53.35;;;7.97;;
69835;SDS011;57132;51.972;4.450;2023-03-26T00:59:11;41.03;;;7.57;;
69835;SDS011;57132;51.972;4.450;2023-03-26T01:01:36;45.67;;;7.75;;
69835;SDS011;57132;51.972;4.450;2023-03-26T01:06:51;56.22;;;8.75;;
69835;SDS011;57132;51.972;4.450;2023-03-26T01:09:19;58.45;;;8.35;;
69835;SDS011;57132;51.972;4.450;2023-03-26T01:11:49;50.38;;;8.25;;
69835;SDS011;57132;51.972;4.450;2023-03-26T01:14:16;50.42;;;9.23;;
69835;SDS011;57132;51.972;4.450;2023-03-26T01:19:19;67.45;;;7.95;;
69835;SDS011;57132;51.972;4.450;2023-03-26T01:22:05;45.58;;;6.53;;
69835;SDS011;57132;51.972;4.450;2023-03-26T01:24:37;62.63;;;7.70;;
69835;SDS011;57132;51.972;4.450;2023-03-26T01:29:52;55.40;;;8.63;;
69835;SDS011;57132;51.972;4.450;2023-03-26T01:32:25;47.75;;;7.20;;
69835;SDS011;57132;51.972;4.450;2023-03-26T01:37:29;53.33;;;7.82;;
69835;SDS011;57132;51.972;4.450;2023-03-26T01:40:07;54.63;;;7.13;;
69835;SDS011;57132;51.972;4.450;2023-03-26T01:42:55;70.20;;;9.05;;
69835;SDS011;57132;51.972;4.450;2023-03-26T01:45:36;60.92;;;9.50;;
69835;SDS011;57132;51.972;4.450;2023-03-26T01:48:03;56.05;;;8.77;;
69835;SDS011;57132;51.972;4.450;2023-03-26T01:50:30;55.80;;;8.25;;
69835;SDS011;57132;51.972;4.450;2023-03-26T01:52:56;64.60;;;10.30;;
69835;SDS011;57132;51.972;4.450;2023-03-26T01:55:23;51.58;;;9.18;;
69835;SDS011;57132;51.972;4.450;2023-03-26T01:57:55;87.47;;;10.60;;
69835;SDS011;57132;51.972;4.450;2023-03-26T02:00:27;73.85;;;10.32;;
69835;SDS011;57132;51.972;4.450;2023-03-26T02:05:51;59.53;;;10.80;;
69835;SDS011;57132;51.972;4.450;2023-03-26T02:08:37;56.65;;;10.50;;
69835;SDS011;57132;51.972;4.450;2023-03-26T02:11:10;67.40;;;11.25;;
69835;SDS011;57132;51.972;4.450;2023-03-26T02:13:41;66.55;;;10.23;;
69835;SDS011;57132;51.972;4.450;2023-03-26T02:16:10;87.60;;;12.05;;
69835;SDS011;57132;51.972;4.450;2023-03-26T02:18:41;72.03;;;11.70;;
69835;SDS011;57132;51.972;4.450;2023-03-26T02:21:09;61.83;;;10.95;;
69835;SDS011;57132;51.972;4.450;2023-03-26T02:23:44;66.95;;;11.57;;
69835;SDS011;57132;51.972;4.450;2023-03-26T02:26:14;71.80;;;10.88;;
69835;SDS011;57132;51.972;4.450;2023-03-26T02:28:42;63.13;;;11.35;;
69835;SDS011;57132;51.972;4.450;2023-03-26T02:31:07;67.65;;;11.77;;
69835;SDS011;57132;51.972;4.450;2023-03-26T02:33:37;70.55;;;11.00;;
69835;SDS011;57132;51.972;4.450;2023-03-26T02:36:04;63.47;;;12.07;;
69835;SDS011;57132;51.972;4.450;2023-03-26T02:38:30;61.92;;;12.65;;
69835;SDS011;57132;51.972;4.450;2023-03-26T02:41:00;70.88;;;12.05;;
69835;SDS011;57132;51.972;4.450;2023-03-26T02:43:28;57.97;;;10.35;;
69835;SDS011;57132;51.972;4.450;2023-03-26T02:45:54;53.83;;;10.80;;
69835;SDS011;57132;51.972;4.450;2023-03-26T02:48:20;73.05;;;13.10;;
69835;SDS011;57132;51.972;4.450;2023-03-26T02:50:45;50.55;;;10.45;;
69835;SDS011;57132;51.972;4.450;2023-03-26T02:53:14;75.72;;;12.73;;
69835;SDS011;57132;51.972;4.450;2023-03-26T02:55:40;68.30;;;10.35;;
69835;SDS011;57132;51.972;4.450;2023-03-26T02:58:05;52.78;;;9.50;;
69835;SDS011;57132;51.972;4.450;2023-03-26T03:00:31;52.20;;;8.13;;
69835;SDS011;57132;51.972;4.450;2023-03-26T03:02:57;57.13;;;9.60;;
69835;SDS011;57132;51.972;4.450;2023-03-26T03:05:23;66.20;;;8.60;;
69835;SDS011;57132;51.972;4.450;2023-03-26T03:07:52;49.25;;;8.10;;
69835;SDS011;57132;51.972;4.450;2023-03-26T03:10:22;56.90;;;8.55;;
69835;SDS011;57132;51.972;4.450;2023-03-26T03:12:49;47.05;;;8.63;;
69835;SDS011;57132;51.972;4.450;2023-03-26T03:15:14;43.13;;;6.82;;
69835;SDS011;57132;51.972;4.450;2023-03-26T03:17:40;51.58;;;7.38;;
69835;SDS011;57132;51.972;4.450;2023-03-26T03:20:06;46.50;;;6.95;;
69835;SDS011;57132;51.972;4.450;2023-03-26T03:22:35;38.13;;;6.50;;
69835;SDS011;57132;51.972;4.450;2023-03-26T03:25:01;44.88;;;8.32;;
69835;SDS011;57132;51.972;4.450;2023-03-26T03:27:26;45.58;;;7.43;;
69835;SDS011;57132;51.972;4.450;2023-03-26T03:29:52;34.22;;;6.82;;
69835;SDS011;57132;51.972;4.450;2023-03-26T03:32:19;38.22;;;7.65;;
69835;SDS011;57132;51.972;4.450;2023-03-26T03:34:46;30.15;;;6.70;;
69835;SDS011;57132;51.972;4.450;2023-03-26T03:37:13;45.67;;;6.68;;
69835;SDS011;57132;51.972;4.450;2023-03-26T03:39:39;38.92;;;8.57;;
69835;SDS011;57132;51.972;4.450;2023-03-26T03:42:04;32.83;;;7.13;;
69835;SDS011;57132;51.972;4.450;2023-03-26T03:44:30;32.67;;;5.97;;
69835;SDS011;57132;51.972;4.450;2023-03-26T03:46:55;29.20;;;5.50;;
69835;SDS011;57132;51.972;4.450;2023-03-26T03:49:21;34.17;;;6.18;;
69835;SDS011;57132;51.972;4.450;2023-03-26T03:51:47;44.58;;;7.05;;
69835;SDS011;57132;51.972;4.450;2023-03-26T03:54:12;39.95;;;7.28;;
69835;SDS011;57132;51.972;4.450;2023-03-26T03:56:38;30.27;;;6.55;;
69835;SDS011;57132;51.972;4.450;2023-03-26T03:59:03;36.80;;;8.07;;
69835;SDS011;57132;51.972;4.450;2023-03-26T04:01:29;43.75;;;8.32;;
69835;SDS011;57132;51.972;4.450;2023-03-26T04:03:56;33.83;;;7.20;;
69835;SDS011;57132;51.972;4.450;2023-03-26T04:06:21;40.38;;;7.70;;
69835;SDS011;57132;51.972;4.450;2023-03-26T04:08:49;35.83;;;7.78;;
69835;SDS011;57132;51.972;4.450;2023-03-26T04:11:15;29.02;;;5.82;;
69835;SDS011;57132;51.972;4.450;2023-03-26T04:13:40;27.80;;;5.78;;
69835;SDS011;57132;51.972;4.450;2023-03-26T04:16:06;38.35;;;6.97;;
69835;SDS011;57132;51.972;4.450;2023-03-26T04:18:32;35.72;;;5.72;;
69835;SDS011;57132;51.972;4.450;2023-03-26T04:20:57;46.30;;;7.00;;
69835;SDS011;57132;51.972;4.450;2023-03-26T04:23:27;36.35;;;8.40;;
69835;SDS011;57132;51.972;4.450;2023-03-26T04:25:53;28.35;;;6.88;;
69835;SDS011;57132;51.972;4.450;2023-03-26T04:28:27;34.05;;;7.43;;
69835;SDS011;57132;51.972;4.450;2023-03-26T04:30:55;35.15;;;7.15;;
69835;SDS011;57132;51.972;4.450;2023-03-26T04:33:25;36.88;;;6.45;;
69835;SDS011;57132;51.972;4.450;2023-03-26T04:35:52;42.15;;;7.82;;
69835;SDS011;57132;51.972;4.450;2023-03-26T04:38:18;39.50;;;6.47;;
69835;SDS011;57132;51.972;4.450;2023-03-26T04:40:44;56.83;;;8.68;;
69835;SDS011;57132;51.972;4.450;2023-03-26T04:43:12;32.42;;;6.63;;
69835;SDS011;57132;51.972;4.450;2023-03-26T04:45:40;46.40;;;9.50;;
69835;SDS011;57132;51.972;4.450;2023-03-26T04:48:07;41.10;;;6.38;;
69835;SDS011;57132;51.972;4.450;2023-03-26T04:50:32;46.00;;;8.50;;
69835;SDS011;57132;51.972;4.450;2023-03-26T04:52:58;39.33;;;7.40;;
69835;SDS011;57132;51.972;4.450;2023-03-26T04:57:49;37.55;;;8.50;;
69835;SDS011;57132;51.972;4.450;2023-03-26T05:00:19;39.13;;;8.13;;
69835;SDS011;57132;51.972;4.450;2023-03-26T05:02:45;40.83;;;7.47;;
69835;SDS011;57132;51.972;4.450;2023-03-26T05:05:14;33.65;;;6.93;;
69835;SDS011;57132;51.972;4.450;2023-03-26T05:07:40;39.63;;;8.68;;
69835;SDS011;57132;51.972;4.450;2023-03-26T05:10:06;48.30;;;8.50;;
69835;SDS011;57132;51.972;4.450;2023-03-26T05:12:32;36.38;;;8.70;;
69835;SDS011;57132;51.972;4.450;2023-03-26T05:14:57;39.10;;;9.52;;
69835;SDS011;57132;51.972;4.450;2023-03-26T05:17:22;43.35;;;8.88;;
69835;SDS011;57132;51.972;4.450;2023-03-26T05:19:49;53.25;;;10.32;;
69835;SDS011;57132;51.972;4.450;2023-03-26T05:22:15;49.75;;;10.95;;
69835;SDS011;57132;51.972;4.450;2023-03-26T05:24:41;40.03;;;9.73;;
69835;SDS011;57132;51.972;4.450;2023-03-26T05:27:07;53.58;;;10.73;;
69835;SDS011;57132;51.972;4.450;2023-03-26T05:29:32;41.65;;;10.15;;
69835;SDS011;57132;51.972;4.450;2023-03-26T05:31:57;52.25;;;11.15;;
69835;SDS011;57132;51.972;4.450;2023-03-26T05:34:23;49.05;;;11.05;;
69835;SDS011;57132;51.972;4.450;2023-03-26T05:36:48;50.05;;;12.13;;
69835;SDS011;57132;51.972;4.450;2023-03-26T05:39:14;51.38;;;9.90;;
69835;SDS011;57132;51.972;4.450;2023-03-26T05:41:39;46.58;;;9.38;;
69835;SDS011;57132;51.972;4.450;2023-03-26T05:44:05;47.55;;;9.43;;
69835;SDS011;57132;51.972;4.450;2023-03-26T05:46:30;50.70;;;8.55;;
69835;SDS011;57132;51.972;4.450;2023-03-26T05:48:55;44.10;;;8.80;;
69835;SDS011;57132;51.972;4.450;2023-03-26T05:51:21;41.78;;;8.70;;
69835;SDS011;57132;51.972;4.450;2023-03-26T05:53:47;38.88;;;7.68;;
69835;SDS011;57132;51.972;4.450;2023-03-26T05:56:13;50.45;;;8.68;;
69835;SDS011;57132;51.972;4.450;2023-03-26T05:58:38;40.72;;;9.50;;
69835;SDS011;57132;51.972;4.450;2023-03-26T06:01:06;51.30;;;10.48;;
69835;SDS011;57132;51.972;4.450;2023-03-26T06:03:34;44.70;;;8.10;;
69835;SDS011;57132;51.972;4.450;2023-03-26T06:06:01;52.83;;;10.50;;
69835;SDS011;57132;51.972;4.450;2023-03-26T06:08:30;62.40;;;10.85;;
69835;SDS011;57132;51.972;4.450;2023-03-26T06:10:59;47.92;;;11.60;;
69835;SDS011;57132;51.972;4.450;2023-03-26T06:13:31;46.67;;;11.70;;
69835;SDS011;57132;51.972;4.450;2023-03-26T06:15:56;45.08;;;10.90;;
69835;SDS011;57132;51.972;4.450;2023-03-26T06:18:22;40.05;;;12.05;;
69835;SDS011;57132;51.972;4.450;2023-03-26T06:20:49;59.35;;;12.50;;
69835;SDS011;57132;51.972;4.450;2023-03-26T06:23:15;53.10;;;12.60;;
69835;SDS011;57132;51.972;4.450;2023-03-26T06:25:40;56.38;;;12.35;;
69835;SDS011;57132;51.972;4.450;2023-03-26T06:28:08;54.10;;;13.35;;
69835;SDS011;57132;51.972;4.450;2023-03-26T06:30:34;50.08;;;13.65;;
69835;SDS011;57132;51.972;4.450;2023-03-26T06:32:59;56.25;;;13.98;;
69835;SDS011;57132;51.972;4.450;2023-03-26T06:35:25;54.72;;;14.90;;
69835;SDS011;57132;51.972;4.450;2023-03-26T06:37:50;58.10;;;13.73;;
69835;SDS011;57132;51.972;4.450;2023-03-26T06:40:15;45.33;;;12.68;;
69835;SDS011;57132;51.972;4.450;2023-03-26T06:42:41;64.75;;;14.60;;
69835;SDS011;57132;51.972;4.450;2023-03-26T06:45:06;51.80;;;13.27;;
69835;SDS011;57132;51.972;4.450;2023-03-26T06:47:32;50.13;;;13.73;;
69835;SDS011;57132;51.972;4.450;2023-03-26T06:49:57;63.42;;;16.65;;
69835;SDS011;57132;51.972;4.450;2023-03-26T06:52:23;42.35;;;15.40;;
69835;SDS011;57132;51.972;4.450;2023-03-26T06:54:48;61.58;;;14.93;;
69835;SDS011;57132;51.972;4.450;2023-03-26T06:57:13;73.75;;;17.70;;
69835;SDS011;57132;51.972;4.450;2023-03-26T06:59:39;60.17;;;16.48;;
69835;SDS011;57132;51.972;4.450;2023-03-26T07:02:04;44.00;;;14.82;;
69835;SDS011;57132;51.972;4.450;2023-03-26T07:04:30;59.75;;;15.13;;
69835;SDS011;57132;51.972;4.450;2023-03-26T07:06:55;49.78;;;14.70;;
69835;SDS011;57132;51.972;4.450;2023-03-26T07:09:21;58.42;;;16.30;;
69835;SDS011;57132;51.972;4.450;2023-03-26T07:11:46;57.78;;;15.82;;
69835;SDS011;57132;51.972;4.450;2023-03-26T07:14:11;53.22;;;14.57;;
69835;SDS011;57132;51.972;4.450;2023-03-26T07:16:37;52.85;;;15.15;;
69835;SDS011;57132;51.972;4.450;2023-03-26T07:19:02;49.22;;;14.98;;
69835;SDS011;57132;51.972;4.450;2023-03-26T07:21:27;55.97;;;15.90;;
69835;SDS011;57132;51.972;4.450;2023-03-26T07:23:53;48.58;;;14.85;;
69835;SDS011;57132;51.972;4.450;2023-03-26T07:26:22;51.20;;;16.00;;
69835;SDS011;57132;51.972;4.450;2023-03-26T07:28:51;52.45;;;16.08;;
69835;SDS011;57132;51.972;4.450;2023-03-26T07:34:38;51.00;;;15.43;;
69835;SDS011;57132;51.972;4.450;2023-03-26T07:43:32;46.65;;;14.07;;
69835;SDS011;57132;51.972;4.450;2023-03-26T07:46:10;42.53;;;15.05;;
69835;SDS011;57132;51.972;4.450;2023-03-26T07:48:41;37.30;;;14.60;;
69835;SDS011;57132;51.972;4.450;2023-03-26T07:51:08;42.45;;;13.55;;
69835;SDS011;57132;51.972;4.450;2023-03-26T07:53:35;48.22;;;13.70;;
69835;SDS011;57132;51.972;4.450;2023-03-26T07:56:14;37.90;;;12.35;;
69835;SDS011;57132;51.972;4.450;2023-03-26T07:58:57;35.17;;;13.02;;
69835;SDS011;57132;51.972;4.450;2023-03-26T08:07:51;46.28;;;12.90;;
69835;SDS011;57132;51.972;4.450;2023-03-26T08:16:18;45.13;;;13.52;;
69835;SDS011;57132;51.972;4.450;2023-03-26T08:19:12;35.00;;;12.60;;
69835;SDS011;57132;51.972;4.450;2023-03-26T08:21:54;36.80;;;12.02;;
69835;SDS011;57132;51.972;4.450;2023-03-26T08:24:26;39.20;;;11.80;;
69835;SDS011;57132;51.972;4.450;2023-03-26T08:27:12;31.05;;;11.55;;
69835;SDS011;57132;51.972;4.450;2023-03-26T08:32:22;36.28;;;12.00;;
69835;SDS011;57132;51.972;4.450;2023-03-26T08:34:48;31.98;;;12.68;;
69835;SDS011;57132;51.972;4.450;2023-03-26T08:37:13;40.83;;;12.45;;
69835;SDS011;57132;51.972;4.450;2023-03-26T08:39:39;33.28;;;11.18;;
69835;SDS011;57132;51.972;4.450;2023-03-26T08:42:18;31.98;;;10.93;;
69835;SDS011;57132;51.972;4.450;2023-03-26T08:47:45;26.08;;;7.55;;
69835;SDS011;57132;51.972;4.450;2023-03-26T08:50:32;19.38;;;7.75;;
69835;SDS011;57132;51.972;4.450;2023-03-26T08:56:18;34.20;;;9.75;;
69835;SDS011;57132;51.972;4.450;2023-03-26T08:59:32;28.40;;;9.50;;
69835;SDS011;57132;51.972;4.450;2023-03-26T09:13:06;24.50;;;8.45;;
69835;SDS011;57132;51.972;4.450;2023-03-26T09:16:04;25.30;;;8.32;;
69835;SDS011;57132;51.972;4.450;2023-03-26T09:53:08;19.88;;;7.38;;
69835;SDS011;57132;51.972;4.450;2023-03-26T09:56:10;22.73;;;8.30;;
69835;SDS011;57132;51.972;4.450;2023-03-26T10:12:07;27.23;;;14.50;;
69835;SDS011;57132;51.972;4.450;2023-03-26T10:14:45;32.53;;;12.90;;
69835;SDS011;57132;51.972;4.450;2023-03-26T10:22:37;37.70;;;16.25;;
69835;SDS011;57132;51.972;4.450;2023-03-26T10:31:32;42.17;;;13.30;;
69835;SDS011;57132;51.972;4.450;2023-03-26T10:36:54;32.35;;;11.02;;
69835;SDS011;57132;51.972;4.450;2023-03-26T10:39:43;36.38;;;10.75;;
69835;SDS011;57132;51.972;4.450;2023-03-26T10:55:36;22.20;;;5.90;;
69835;SDS011;57132;51.972;4.450;2023-03-26T10:58:16;25.80;;;6.95;;
69835;SDS011;57132;51.972;4.450;2023-03-26T11:01:10;21.52;;;5.78;;
69835;SDS011;57132;51.972;4.450;2023-03-26T11:03:52;23.02;;;6.22;;
69835;SDS011;57132;51.972;4.450;2023-03-26T11:09:00;35.70;;;6.22;;
69835;SDS011;57132;51.972;4.450;2023-03-26T11:14:02;38.40;;;5.47;;
69835;SDS011;57132;51.972;4.450;2023-03-26T11:21:56;19.83;;;5.10;;
69835;SDS011;57132;51.972;4.450;2023-03-26T11:27:15;19.20;;;5.47;;
69835;SDS011;57132;51.972;4.450;2023-03-26T11:29:51;25.27;;;5.47;;
69835;SDS011;57132;51.972;4.450;2023-03-26T11:32:26;16.70;;;5.45;;
69835;SDS011;57132;51.972;4.450;2023-03-26T11:35:48;21.75;;;5.18;;
69835;SDS011;57132;51.972;4.450;2023-03-26T11:37:52;24.45;;;5.18;;
69835;SDS011;57132;51.972;4.450;2023-03-26T11:40:21;25.58;;;6.72;;
69835;SDS011;57132;51.972;4.450;2023-03-26T11:42:53;30.35;;;6.18;;
69835;SDS011;57132;51.972;4.450;2023-03-26T11:45:24;19.15;;;4.15;;
69835;SDS011;57132;51.972;4.450;2023-03-26T11:48:04;18.85;;;4.72;;
69835;SDS011;57132;51.972;4.450;2023-03-26T11:50:35;29.17;;;5.75;;
69835;SDS011;57132;51.972;4.450;2023-03-26T11:53:16;22.75;;;4.57;;
69835;SDS011;57132;51.972;4.450;2023-03-26T11:55:45;21.20;;;4.28;;
69835;SDS011;57132;51.972;4.450;2023-03-26T11:58:23;20.90;;;4.57;;
69835;SDS011;57132;51.972;4.450;2023-03-26T12:00:54;25.98;;;5.15;;
69835;SDS011;57132;51.972;4.450;2023-03-26T12:03:20;20.10;;;4.05;;
69835;SDS011;57132;51.972;4.450;2023-03-26T12:05:47;32.75;;;5.72;;
69835;SDS011;57132;51.972;4.450;2023-03-26T12:08:20;20.95;;;4.88;;
69835;SDS011;57132;51.972;4.450;2023-03-26T12:10:57;20.35;;;4.45;;
69835;SDS011;57132;51.972;4.450;2023-03-26T12:13:42;19.33;;;3.92;;
69835;SDS011;57132;51.972;4.450;2023-03-26T12:16:16;22.83;;;5.32;;
69835;SDS011;57132;51.972;4.450;2023-03-26T12:18:45;32.85;;;5.65;;
69835;SDS011;57132;51.972;4.450;2023-03-26T12:21:21;26.75;;;5.18;;
69835;SDS011;57132;51.972;4.450;2023-03-26T12:23:59;25.63;;;4.72;;
69835;SDS011;57132;51.972;4.450;2023-03-26T12:29:10;23.83;;;5.68;;
69835;SDS011;57132;51.972;4.450;2023-03-26T12:34:29;22.73;;;3.90;;
69835;SDS011;57132;51.972;4.450;2023-03-26T12:37:01;19.25;;;4.75;;
69835;SDS011;57132;51.972;4.450;2023-03-26T12:42:04;20.40;;;4.95;;
69835;SDS011;57132;51.972;4.450;2023-03-26T12:44:49;27.60;;;4.47;;
69835;SDS011;57132;51.972;4.450;2023-03-26T12:47:20;22.05;;;4.40;;
69835;SDS011;57132;51.972;4.450;2023-03-26T12:49:49;16.67;;;4.35;;
69835;SDS011;57132;51.972;4.450;2023-03-26T13:00:50;16.58;;;3.47;;
69835;SDS011;57132;51.972;4.450;2023-03-26T13:09:17;18.02;;;3.75;;
69835;SDS011;57132;51.972;4.450;2023-03-26T13:11:59;15.85;;;3.15;;
69835;SDS011;57132;51.972;4.450;2023-03-26T13:19:37;19.40;;;3.75;;
69835;SDS011;57132;51.972;4.450;2023-03-26T13:22:16;11.93;;;3.55;;
69835;SDS011;57132;51.972;4.450;2023-03-26T13:35:28;19.05;;;2.92;;
69835;SDS011;57132;51.972;4.450;2023-03-26T13:40:48;12.73;;;2.65;;
69835;SDS011;57132;51.972;4.450;2023-03-26T13:48:50;17.08;;;3.25;;
69835;SDS011;57132;51.972;4.450;2023-03-26T13:57:10;17.08;;;2.75;;
69835;SDS011;57132;51.972;4.450;2023-03-26T13:59:44;11.80;;;2.95;;
69835;SDS011;57132;51.972;4.450;2023-03-26T14:02:32;9.88;;;3.15;;
69835;SDS011;57132;51.972;4.450;2023-03-26T14:07:41;12.63;;;2.80;;
69835;SDS011;57132;51.972;4.450;2023-03-26T14:10:11;10.25;;;2.40;;
69835;SDS011;57132;51.972;4.450;2023-03-26T14:12:43;8.95;;;3.05;;
69835;SDS011;57132;51.972;4.450;2023-03-26T14:18:23;10.43;;;2.38;;
69835;SDS011;57132;51.972;4.450;2023-03-26T14:24:11;11.75;;;2.60;;
69835;SDS011;57132;51.972;4.450;2023-03-26T14:27:04;10.55;;;2.20;;
69835;SDS011;57132;51.972;4.450;2023-03-26T14:30:03;10.80;;;2.00;;
69835;SDS011;57132;51.972;4.450;2023-03-26T14:41:08;16.20;;;3.10;;
69835;SDS011;57132;51.972;4.450;2023-03-26T14:49:03;8.57;;;2.22;;
69835;SDS011;57132;51.972;4.450;2023-03-26T15:02:53;12.20;;;2.08;;
69835;SDS011;57132;51.972;4.450;2023-03-26T15:25:19;9.80;;;2.63;;
69835;SDS011;57132;51.972;4.450;2023-03-26T15:50:39;7.47;;;2.35;;
69835;SDS011;57132;51.972;4.450;2023-03-26T15:53:32;10.38;;;2.47;;
69835;SDS011;57132;51.972;4.450;2023-03-26T15:56:21;7.43;;;1.90;;
69835;SDS011;57132;51.972;4.450;2023-03-26T15:58:58;13.98;;;2.85;;
69835;SDS011;57132;51.972;4.450;2023-03-26T16:01:44;8.77;;;1.80;;
69835;SDS011;57132;51.972;4.450;2023-03-26T16:07:28;8.27;;;1.92;;
69835;SDS011;57132;51.972;4.450;2023-03-26T16:15:52;5.53;;;1.73;;
69835;SDS011;57132;51.972;4.450;2023-03-26T16:18:25;8.68;;;1.88;;
69835;SDS011;57132;51.972;4.450;2023-03-26T16:21:00;11.38;;;2.30;;
69835;SDS011;57132;51.972;4.450;2023-03-26T16:31:30;8.35;;;2.30;;
69835;SDS011;57132;51.972;4.450;2023-03-26T16:44:16;10.52;;;1.60;;
69835;SDS011;57132;51.972;4.450;2023-03-26T16:52:18;8.68;;;2.22;;
69835;SDS011;57132;51.972;4.450;2023-03-26T16:54:50;8.77;;;1.70;;
69835;SDS011;57132;51.972;4.450;2023-03-26T16:57:42;7.47;;;1.70;;
69835;SDS011;57132;51.972;4.450;2023-03-26T17:00:29;11.98;;;1.60;;
69835;SDS011;57132;51.972;4.450;2023-03-26T17:03:14;10.68;;;1.98;;
69835;SDS011;57132;51.972;4.450;2023-03-26T17:16:43;8.52;;;2.08;;
69835;SDS011;57132;51.972;4.450;2023-03-26T17:19:56;2.92;;;1.40;;
69835;SDS011;57132;51.972;4.450;2023-03-26T17:24:38;5.45;;;1.80;;
69835;SDS011;57132;51.972;4.450;2023-03-26T17:38:54;8.80;;;1.83;;
69835;SDS011;57132;51.972;4.450;2023-03-26T17:40:56;4.57;;;1.20;;
69835;SDS011;57132;51.972;4.450;2023-03-26T17:46:40;8.15;;;1.90;;
69835;SDS011;57132;51.972;4.450;2023-03-26T17:57:02;5.18;;;1.50;;
69835;SDS011;57132;51.972;4.450;2023-03-26T17:59:52;5.43;;;1.77;;
69835;SDS011;57132;51.972;4.450;2023-03-26T18:02:24;10.45;;;2.05;;
69835;SDS011;57132;51.972;4.450;2023-03-26T18:05:00;5.10;;;1.50;;
69835;SDS011;57132;51.972;4.450;2023-03-26T18:07:38;12.13;;;1.67;;
69835;SDS011;57132;51.972;4.450;2023-03-26T18:15:28;5.35;;;1.95;;
69835;SDS011;57132;51.972;4.450;2023-03-26T18:18:25;13.23;;;1.77;;
69835;SDS011;57132;51.972;4.450;2023-03-26T18:21:04;6.13;;;1.75;;
69835;SDS011;57132;51.972;4.450;2023-03-26T18:23:45;7.07;;;1.50;;
69835;SDS011;57132;51.972;4.450;2023-03-26T18:26:14;14.18;;;1.70;;
69835;SDS011;57132;51.972;4.450;2023-03-26T18:28:50;8.73;;;1.98;;
69835;SDS011;57132;51.972;4.450;2023-03-26T18:31:22;7.30;;;1.67;;
69835;SDS011;57132;51.972;4.450;2023-03-26T18:33:53;12.75;;;2.15;;
69835;SDS011;57132;51.972;4.450;2023-03-26T18:36:23;10.90;;;1.70;;
69835;SDS011;57132;51.972;4.450;2023-03-26T18:38:54;7.47;;;1.98;;
69835;SDS011;57132;51.972;4.450;2023-03-26T18:41:26;8.85;;;1.88;;
69835;SDS011;57132;51.972;4.450;2023-03-26T18:43:55;7.80;;;1.92;;
69835;SDS011;57132;51.972;4.450;2023-03-26T18:46:25;8.25;;;1.67;;
69835;SDS011;57132;51.972;4.450;2023-03-26T18:48:51;5.57;;;1.63;;
69835;SDS011;57132;51.972;4.450;2023-03-26T18:51:19;7.38;;;1.67;;
69835;SDS011;57132;51.972;4.450;2023-03-26T18:53:57;7.80;;;1.70;;
69835;SDS011;57132;51.972;4.450;2023-03-26T18:56:40;11.45;;;2.00;;
69835;SDS011;57132;51.972;4.450;2023-03-26T18:59:18;4.63;;;1.38;;
69835;SDS011;57132;51.972;4.450;2023-03-26T19:01:55;10.07;;;1.95;;
69835;SDS011;57132;51.972;4.450;2023-03-26T19:04:22;8.93;;;1.40;;
69835;SDS011;57132;51.972;4.450;2023-03-26T19:06:48;13.07;;;1.67;;
69835;SDS011;57132;51.972;4.450;2023-03-26T19:09:19;6.93;;;1.67;;
69835;SDS011;57132;51.972;4.450;2023-03-26T19:11:47;9.00;;;2.33;;
69835;SDS011;57132;51.972;4.450;2023-03-26T19:14:18;7.88;;;1.40;;
69835;SDS011;57132;51.972;4.450;2023-03-26T19:16:45;4.75;;;1.77;;
69835;SDS011;57132;51.972;4.450;2023-03-26T19:19:20;5.80;;;1.20;;
69835;SDS011;57132;51.972;4.450;2023-03-26T19:21:49;8.88;;;1.42;;
69835;SDS011;57132;51.972;4.450;2023-03-26T19:24:15;13.10;;;2.22;;
69835;SDS011;57132;51.972;4.450;2023-03-26T19:26:43;10.13;;;1.80;;
69835;SDS011;57132;51.972;4.450;2023-03-26T19:29:11;14.48;;;2.42;;
69835;SDS011;57132;51.972;4.450;2023-03-26T19:31:38;8.82;;;1.77;;
69835;SDS011;57132;51.972;4.450;2023-03-26T19:36:38;8.80;;;3.17;;
69835;SDS011;57132;51.972;4.450;2023-03-26T19:39:35;7.40;;;1.60;;
69835;SDS011;57132;51.972;4.450;2023-03-26T19:42:04;7.72;;;1.52;;
69835;SDS011;57132;51.972;4.450;2023-03-26T19:44:31;13.90;;;2.17;;
69835;SDS011;57132;51.972;4.450;2023-03-26T19:47:40;10.02;;;1.42;;
69835;SDS011;57132;51.972;4.450;2023-03-26T19:49:49;7.30;;;1.55;;
69835;SDS011;57132;51.972;4.450;2023-03-26T19:52:19;8.80;;;2.42;;
69835;SDS011;57132;51.972;4.450;2023-03-26T19:55:20;12.32;;;1.65;;
69835;SDS011;57132;51.972;4.450;2023-03-26T19:57:43;6.45;;;1.30;;
69835;SDS011;57132;51.972;4.450;2023-03-26T20:00:09;6.07;;;1.42;;
69835;SDS011;57132;51.972;4.450;2023-03-26T20:02:39;8.52;;;1.60;;
69835;SDS011;57132;51.972;4.450;2023-03-26T20:05:10;9.52;;;1.80;;
69835;SDS011;57132;51.972;4.450;2023-03-26T20:07:42;8.38;;;2.17;;
69835;SDS011;57132;51.972;4.450;2023-03-26T20:10:10;8.07;;;1.90;;
69835;SDS011;57132;51.972;4.450;2023-03-26T20:12:36;13.32;;;2.05;;
69835;SDS011;57132;51.972;4.450;2023-03-26T20:15:07;10.10;;;2.17;;
69835;SDS011;57132;51.972;4.450;2023-03-26T20:17:39;9.48;;;1.95;;
69835;SDS011;57132;51.972;4.450;2023-03-26T20:20:07;7.00;;;1.60;;
69835;SDS011;57132;51.972;4.450;2023-03-26T20:22:36;8.10;;;1.52;;
69835;SDS011;57132;51.972;4.450;2023-03-26T20:25:07;4.78;;;1.52;;
69835;SDS011;57132;51.972;4.450;2023-03-26T20:27:45;11.90;;;2.00;;
69835;SDS011;57132;51.972;4.450;2023-03-26T20:30:12;8.43;;;1.85;;
69835;SDS011;57132;51.972;4.450;2023-03-26T20:32:41;10.93;;;1.90;;
69835;SDS011;57132;51.972;4.450;2023-03-26T20:35:13;5.50;;;1.48;;
69835;SDS011;57132;51.972;4.450;2023-03-26T20:37:43;5.95;;;1.45;;
69835;SDS011;57132;51.972;4.450;2023-03-26T20:40:08;6.55;;;2.03;;
69835;SDS011;57132;51.972;4.450;2023-03-26T20:42:36;6.65;;;2.03;;
69835;SDS011;57132;51.972;4.450;2023-03-26T20:45:02;6.65;;;1.27;;
69835;SDS011;57132;51.972;4.450;2023-03-26T20:47:38;8.80;;;1.40;;